Terminal Aerodrome Forecast
Issued by NWS North Platte, NE

Home | Current Version | Previous Version | Text Only | Print | Product List | Glossary On
Versions: 1 2 3 4 5 6 7 8 9 10 11 12 13 14 15 16 17 18 19 20 21 22 23 24 25 26
584
FTUS43 KLBF 131720
TAFLBF
TAF
KLBF 131720Z 1318/1418 18014G21KT P6SM OVC008
      TEMPO 1318/1322 18014G21KT 6SM -FZDZ BR OVC008
     FM132200 16012KT P6SM OVC015
     FM140300 22009KT P6SM BKN035
     FM141000 30008KT P6SM FEW050 SCT250=

USA.gov is the U.S. government's official web portal to all federal, state and local government web resources and services.